createdAt,value
2023-03-22T00:01:48.520Z,38.03
2023-03-22T00:04:18.273Z,38.25
2023-03-22T00:06:48.542Z,35.85
2023-03-22T00:09:18.787Z,36.35
2023-03-22T00:11:52.705Z,37.60
2023-03-22T00:14:22.808Z,37.08
2023-03-22T00:16:52.931Z,36.50
2023-03-22T00:19:22.920Z,37.38
2023-03-22T00:21:53.254Z,37.58
2023-03-22T00:24:23.179Z,38.65
2023-03-22T00:26:53.045Z,37.60
2023-03-22T00:29:24.646Z,38.78
2023-03-22T00:31:56.308Z,37.17
2023-03-22T00:34:26.202Z,37.15
2023-03-22T00:36:58.043Z,37.08
2023-03-22T00:39:28.844Z,37.58
2023-03-22T00:41:58.465Z,39.53
2023-03-22T00:44:28.350Z,36.38
2023-03-22T00:46:58.192Z,36.63
2023-03-22T00:49:28.983Z,36.30
2023-03-22T00:51:58.991Z,36.55
2023-03-22T00:54:28.748Z,37.97
2023-03-22T00:56:59.586Z,36.58
2023-03-22T00:59:30.116Z,36.58
2023-03-22T01:02:00.886Z,37.63
2023-03-22T01:04:30.736Z,37.17
2023-03-22T01:07:05.431Z,38.67
2023-03-22T01:09:35.761Z,37.90
2023-03-22T01:12:05.592Z,36.55
2023-03-22T01:14:35.493Z,38.63
2023-03-22T01:17:05.974Z,36.78
2023-03-22T01:19:37.035Z,36.17
2023-03-22T01:22:08.848Z,34.80
2023-03-22T01:24:39.000Z,36.92
2023-03-22T01:27:08.977Z,37.90
2023-03-22T01:29:39.325Z,37.22
2023-03-22T01:32:09.451Z,36.50
2023-03-22T01:34:39.360Z,36.50
2023-03-22T01:37:09.308Z,35.58
2023-03-22T01:39:39.116Z,34.75
2023-03-22T01:42:09.085Z,33.38
2023-03-22T01:44:41.012Z,34.95
2023-03-22T01:47:13.287Z,35.25
2023-03-22T01:49:43.440Z,38.45
2023-03-22T01:52:16.844Z,31.10
2023-03-22T01:54:50.009Z,30.15
2023-03-22T01:57:20.892Z,28.20
2023-03-22T01:59:51.984Z,27.27
2023-03-22T02:02:22.199Z,25.50
2023-03-22T02:04:52.476Z,26.60
2023-03-22T02:07:29.404Z,28.40
2023-03-22T02:10:00.413Z,26.67
2023-03-22T02:13:09.354Z,26.75
2023-03-22T02:16:18.522Z,24.70
2023-03-22T02:19:30.952Z,25.70
2023-03-22T02:22:41.175Z,27.90
2023-03-22T02:25:50.008Z,25.25
2023-03-22T02:28:59.021Z,26.23
2023-03-22T02:32:00.615Z,25.63
2023-03-22T02:34:55.909Z,25.05
2023-03-22T02:38:04.893Z,25.63
2023-03-22T02:41:14.074Z,25.58
2023-03-22T02:44:16.752Z,25.50
2023-03-22T02:46:58.982Z,24.30
2023-03-22T02:50:01.228Z,20.67
2023-03-22T02:52:54.858Z,20.42
2023-03-22T02:55:38.442Z,20.15
2023-03-22T02:58:20.219Z,20.10
2023-03-22T03:00:52.910Z,20.38
2023-03-22T03:03:26.100Z,19.92
2023-03-22T03:06:05.098Z,19.90
2023-03-22T03:08:35.478Z,21.75
2023-03-22T03:11:05.454Z,20.42
2023-03-22T03:13:35.178Z,20.33
2023-03-22T03:16:09.375Z,20.98
2023-03-22T03:18:53.230Z,19.63
2023-03-22T03:21:54.516Z,20.63
2023-03-22T03:24:49.748Z,22.08
2023-03-22T03:27:29.982Z,20.83
2023-03-22T03:30:15.743Z,20.88
2023-03-22T03:33:08.460Z,21.55
2023-03-22T03:35:53.029Z,19.85
2023-03-22T03:38:28.797Z,21.30
2023-03-22T03:41:11.308Z,19.77
2023-03-22T03:43:42.597Z,21.13
2023-03-22T03:46:13.144Z,21.20
2023-03-22T03:48:46.603Z,22.50
2023-03-22T03:51:16.492Z,18.83
2023-03-22T03:53:46.393Z,20.50
2023-03-22T03:56:16.317Z,20.33
2023-03-22T03:58:47.350Z,20.30
2023-03-22T04:01:17.846Z,19.80
2023-03-22T04:03:48.463Z,19.35
2023-03-22T04:06:18.780Z,21.08
2023-03-22T04:08:55.257Z,20.58
2023-03-22T04:11:25.096Z,21.23
2023-03-22T04:13:54.962Z,19.88
2023-03-22T04:16:26.838Z,19.20
2023-03-22T04:18:56.673Z,20.10
2023-03-22T04:21:26.564Z,18.85
2023-03-22T04:23:57.396Z,20.13
2023-03-22T04:26:27.437Z,19.77
2023-03-22T04:28:58.471Z,19.63
2023-03-22T04:31:28.851Z,19.98
2023-03-22T04:33:59.042Z,18.35
2023-03-22T04:36:33.074Z,18.52
2023-03-22T04:39:02.814Z,18.52
2023-03-22T04:41:33.030Z,19.73
2023-03-22T04:44:06.146Z,18.65
2023-03-22T04:46:38.599Z,18.48
2023-03-22T04:49:08.963Z,19.73
2023-03-22T04:51:38.824Z,19.20
2023-03-22T04:54:08.835Z,18.27
2023-03-22T04:56:38.669Z,19.48
2023-03-22T04:59:09.293Z,19.23
2023-03-22T05:01:39.613Z,19.02
2023-03-22T05:04:09.809Z,18.38
2023-03-22T05:06:39.734Z,18.48
2023-03-22T05:09:10.011Z,17.33
2023-03-22T05:11:40.165Z,18.55
2023-03-22T05:14:11.642Z,18.10
2023-03-22T05:16:42.583Z,16.80
2023-03-22T05:19:16.564Z,18.58
2023-03-22T05:21:46.565Z,18.52
2023-03-22T05:24:16.595Z,16.92
2023-03-22T05:26:46.529Z,17.35
2023-03-22T05:29:16.390Z,16.77
2023-03-22T05:31:46.262Z,17.20
2023-03-22T05:34:16.577Z,17.70
2023-03-22T05:36:46.762Z,17.67
2023-03-22T05:39:17.759Z,16.08
2023-03-22T05:41:47.893Z,16.70
2023-03-22T05:44:18.005Z,16.50
2023-03-22T05:46:48.133Z,17.63
2023-03-22T05:49:18.218Z,16.67
2023-03-22T05:51:48.957Z,16.75
2023-03-22T05:54:18.953Z,16.90
2023-03-22T05:56:49.144Z,17.65
2023-03-22T05:59:19.856Z,17.20
2023-03-22T06:01:50.012Z,16.30
2023-03-22T06:04:20.548Z,17.00
2023-03-22T06:06:50.318Z,16.58
2023-03-22T06:09:20.306Z,17.23
2023-03-22T06:11:50.217Z,16.48
2023-03-22T06:14:20.180Z,17.00
2023-03-22T06:16:50.146Z,16.77
2023-03-22T06:19:20.193Z,16.02
2023-03-22T06:21:50.149Z,17.63
2023-03-22T06:24:19.981Z,18.23
2023-03-22T06:26:49.878Z,17.05
2023-03-22T06:29:19.933Z,17.23
2023-03-22T06:31:49.884Z,17.58
2023-03-22T06:34:19.710Z,17.40
2023-03-22T06:36:49.851Z,17.27
2023-03-22T06:39:19.894Z,17.00
2023-03-22T06:41:49.849Z,17.27
2023-03-22T06:44:19.859Z,16.67
2023-03-22T06:46:50.332Z,18.13
2023-03-22T06:49:21.095Z,18.40
2023-03-22T06:51:50.968Z,18.45
2023-03-22T06:54:20.957Z,17.15
2023-03-22T06:56:50.831Z,17.20
2023-03-22T06:59:21.799Z,17.70
2023-03-22T07:01:51.719Z,19.48
2023-03-22T07:04:21.877Z,20.80
2023-03-22T07:06:51.964Z,21.65
2023-03-22T07:09:22.086Z,20.95
2023-03-22T07:11:52.189Z,21.80
2023-03-22T07:14:22.100Z,20.48
2023-03-22T07:16:52.179Z,19.90
2023-03-22T07:19:21.949Z,20.33
2023-03-22T07:21:52.065Z,19.23
2023-03-22T07:24:22.089Z,19.23
2023-03-22T07:26:52.142Z,19.08
2023-03-22T07:29:21.959Z,20.05
2023-03-22T07:31:51.886Z,19.65
2023-03-22T07:34:21.800Z,20.60
2023-03-22T07:36:51.998Z,19.67
2023-03-22T07:39:21.833Z,21.17
2023-03-22T07:41:51.898Z,19.45
2023-03-22T07:44:21.822Z,19.90
2023-03-22T07:46:54.020Z,22.15
2023-03-22T07:49:24.198Z,21.40
2023-03-22T07:51:53.984Z,20.75
2023-03-22T07:54:33.492Z,21.58
2023-03-22T07:57:04.872Z,21.90
2023-03-22T07:59:34.929Z,20.58
2023-03-22T08:02:05.510Z,22.77
2023-03-22T08:04:36.023Z,22.45
2023-03-22T08:07:05.886Z,23.38
2023-03-22T08:09:35.784Z,22.48
2023-03-22T08:12:05.755Z,22.80
2023-03-22T08:14:37.295Z,22.50
2023-03-22T08:17:08.483Z,23.42
2023-03-22T08:19:38.660Z,20.38
2023-03-22T08:22:08.698Z,20.48
2023-03-22T08:24:38.617Z,21.83
2023-03-22T08:27:08.495Z,20.27
2023-03-22T08:29:39.057Z,20.30
2023-03-22T08:32:09.578Z,19.42
2023-03-22T08:34:41.166Z,19.20
2023-03-22T08:37:11.772Z,21.45
2023-03-22T08:39:41.781Z,20.92
2023-03-22T08:42:12.543Z,20.35
2023-03-22T08:44:42.523Z,20.58
2023-03-22T08:47:12.563Z,20.08
2023-03-22T08:49:42.780Z,20.05
2023-03-22T08:52:13.478Z,20.65
2023-03-22T08:54:43.407Z,20.23
2023-03-22T08:57:13.665Z,20.65
2023-03-22T08:59:44.344Z,19.77
2023-03-22T09:02:14.670Z,18.95
2023-03-22T09:04:44.997Z,18.77
2023-03-22T09:07:15.119Z,18.25
2023-03-22T09:09:45.261Z,19.02
2023-03-22T09:12:15.481Z,20.58
2023-03-22T09:14:48.102Z,19.00
2023-03-22T09:17:22.409Z,19.20
2023-03-22T09:20:02.720Z,19.00
2023-03-22T09:22:39.831Z,17.60
2023-03-22T09:25:12.666Z,17.75
2023-03-22T09:27:43.171Z,16.50
2023-03-22T09:30:13.465Z,16.58
2023-03-22T09:32:43.442Z,16.38
2023-03-22T09:35:13.348Z,15.10
2023-03-22T09:37:43.501Z,15.75
2023-03-22T09:40:14.876Z,14.75
2023-03-22T09:42:49.619Z,15.07
2023-03-22T09:45:32.628Z,13.85
2023-03-22T09:48:03.443Z,13.90
2023-03-22T09:50:35.597Z,14.68
2023-03-22T09:53:05.420Z,14.40
2023-03-22T09:56:07.974Z,14.75
2023-03-22T09:59:17.058Z,14.63
2023-03-22T10:02:03.357Z,16.23
2023-03-22T10:05:02.069Z,15.88
2023-03-22T10:08:04.673Z,15.73
2023-03-22T10:10:34.904Z,14.55
2023-03-22T10:13:39.108Z,16.48
2023-03-22T10:16:15.607Z,15.85
2023-03-22T10:18:51.595Z,15.52
2023-03-22T10:21:22.953Z,15.30
2023-03-22T10:24:06.405Z,14.98
2023-03-22T10:26:43.648Z,16.38
2023-03-22T10:29:36.247Z,15.88
2023-03-22T10:32:31.606Z,16.27
2023-03-22T10:35:01.907Z,15.93
2023-03-22T10:37:38.192Z,16.83
2023-03-22T10:40:10.029Z,16.05
2023-03-22T10:42:41.707Z,16.17
2023-03-22T10:45:16.970Z,17.38
2023-03-22T10:47:56.478Z,18.15
2023-03-22T10:50:31.425Z,16.85
2023-03-22T10:53:29.637Z,19.98
2023-03-22T10:55:59.884Z,17.65
2023-03-22T10:58:35.543Z,18.33
2023-03-22T11:01:11.879Z,18.08
2023-03-22T11:03:45.661Z,17.52
2023-03-22T11:06:21.141Z,17.13
2023-03-22T11:09:00.054Z,16.45
2023-03-22T11:11:49.405Z,17.35
2023-03-22T11:14:29.436Z,17.20
2023-03-22T11:17:10.990Z,18.73
2023-03-22T11:19:51.436Z,17.50
2023-03-22T11:22:42.420Z,17.27
2023-03-22T11:25:23.924Z,16.02
2023-03-22T11:28:15.770Z,17.45
2023-03-22T11:31:02.750Z,18.50
2023-03-22T11:33:33.763Z,18.10
2023-03-22T11:36:07.451Z,20.45
2023-03-22T11:38:46.357Z,23.65
2023-03-22T11:41:33.362Z,23.27
2023-03-22T11:44:12.252Z,28.55
2023-03-22T11:46:50.282Z,28.98
2023-03-22T11:53:14.463Z,29.73
2023-03-22T11:55:44.938Z,32.63
2023-03-22T11:58:32.366Z,34.45
2023-03-22T12:03:39.329Z,32.97
2023-03-22T12:06:38.741Z,27.88
2023-03-22T12:09:30.324Z,27.27
2023-03-22T12:12:02.777Z,24.48
2023-03-22T12:14:39.882Z,23.55
2023-03-22T12:17:40.998Z,23.92
2023-03-22T12:20:44.149Z,23.50
2023-03-22T12:23:19.695Z,22.00
2023-03-22T12:25:55.660Z,21.52
2023-03-22T12:28:40.153Z,22.35
2023-03-22T12:31:24.587Z,20.75
2023-03-22T12:34:15.098Z,19.90
2023-03-22T12:36:59.031Z,20.38
2023-03-22T12:39:45.253Z,20.73
2023-03-22T12:42:32.708Z,20.67
2023-03-22T12:45:19.345Z,21.52
2023-03-22T12:48:05.833Z,22.30
2023-03-22T12:50:53.893Z,23.00
2023-03-22T12:53:28.503Z,23.00
2023-03-22T12:55:59.958Z,24.45
2023-03-22T12:58:30.147Z,22.05
2023-03-22T13:01:38.885Z,23.30
2023-03-22T13:04:47.993Z,24.15
2023-03-22T13:07:53.163Z,23.67
2023-03-22T13:10:44.216Z,23.38
2023-03-22T13:13:20.199Z,23.42
2023-03-22T13:16:17.267Z,22.85
2023-03-22T13:19:03.650Z,23.13
2023-03-22T13:21:35.435Z,22.65
2023-03-22T13:24:25.424Z,26.13
2023-03-22T13:26:57.350Z,25.85
2023-03-22T13:29:40.571Z,26.65
2023-03-22T13:32:31.907Z,23.90
2023-03-22T13:35:02.617Z,23.35
2023-03-22T13:37:37.393Z,23.23
2023-03-22T13:40:44.546Z,24.70
2023-03-22T13:43:35.902Z,24.15
2023-03-22T13:46:45.021Z,23.67
2023-03-22T13:49:47.714Z,24.67
2023-03-22T13:52:30.037Z,24.27
2023-03-22T13:55:00.596Z,23.80
2023-03-22T13:57:58.496Z,24.20
2023-03-22T14:00:41.154Z,25.13
2023-03-22T14:03:28.405Z,24.98
2023-03-22T14:06:11.277Z,25.75
2023-03-22T14:08:44.758Z,22.55
2023-03-22T14:11:41.184Z,23.95
2023-03-22T14:14:21.479Z,25.15
2023-03-22T14:17:30.285Z,27.02
2023-03-22T14:20:00.797Z,25.30
